sensor_id;sensor_type;location;lat;lon;timestamp;pressure;altitude;pressure_sealevel;temperature;humidity
58739;BME280;44512;53.046;18.604;2023-07-08T00:06:01;102295.66;;;22.67;42.03
58739;BME280;44512;53.046;18.604;2023-07-08T00:16:30;102298.09;;;22.52;42.43
58739;BME280;44512;53.046;18.604;2023-07-08T00:26:58;102281.43;;;22.35;42.78
58739;BME280;44512;53.046;18.604;2023-07-08T00:37:26;102279.64;;;22.17;43.09
58739;BME280;44512;53.046;18.604;2023-07-08T00:47:56;102271.47;;;21.99;43.42
58739;BME280;44512;53.046;18.604;2023-07-08T00:58:25;102268.80;;;21.80;43.79
58739;BME280;44512;53.046;18.604;2023-07-08T01:08:51;102255.13;;;21.62;44.16
58739;BME280;44512;53.046;18.604;2023-07-08T01:19:22;102260.50;;;21.45;44.48
58739;BME280;44512;53.046;18.604;2023-07-08T01:29:48;102252.85;;;21.29;44.75
58739;BME280;44512;53.046;18.604;2023-07-08T01:50:54;102249.99;;;20.94;45.36
58739;BME280;44512;53.046;18.604;2023-07-08T02:01:13;102249.57;;;20.78;45.75
58739;BME280;44512;53.046;18.604;2023-07-08T02:11:42;102256.05;;;20.66;46.04
58739;BME280;44512;53.046;18.604;2023-07-08T02:22:10;102264.24;;;20.54;46.37
58739;BME280;44512;53.046;18.604;2023-07-08T02:32:38;102269.02;;;20.40;46.67
58739;BME280;44512;53.046;18.604;2023-07-08T02:43:07;102268.34;;;20.26;46.95
58739;BME280;44512;53.046;18.604;2023-07-08T02:53:35;102261.05;;;20.14;47.40
58739;BME280;44512;53.046;18.604;2023-07-08T03:04:03;102266.46;;;20.02;47.60
58739;BME280;44512;53.046;18.604;2023-07-08T03:14:32;102270.40;;;19.88;47.80
58739;BME280;44512;53.046;18.604;2023-07-08T03:25:00;102268.38;;;19.76;47.88
58739;BME280;44512;53.046;18.604;2023-07-08T03:35:29;102269.11;;;19.65;48.32
58739;BME280;44512;53.046;18.604;2023-07-08T03:45:57;102265.13;;;19.61;48.94
58739;BME280;44512;53.046;18.604;2023-07-08T03:56:25;102268.94;;;19.60;49.32
58739;BME280;44512;53.046;18.604;2023-07-08T04:06:54;102272.94;;;19.64;49.69
58739;BME280;44512;53.046;18.604;2023-07-08T04:17:22;102267.37;;;19.71;49.90
58739;BME280;44512;53.046;18.604;2023-07-08T04:27:50;102255.66;;;19.82;50.07
58739;BME280;44512;53.046;18.604;2023-07-08T04:38:21;102249.18;;;19.95;49.63
58739;BME280;44512;53.046;18.604;2023-07-08T04:48:47;102256.71;;;20.06;48.97
58739;BME280;44512;53.046;18.604;2023-07-08T04:59:18;102259.30;;;20.19;48.55
58739;BME280;44512;53.046;18.604;2023-07-08T05:09:44;102249.70;;;20.28;48.19
58739;BME280;44512;53.046;18.604;2023-07-08T05:20:14;102236.26;;;20.39;47.97
58739;BME280;44512;53.046;18.604;2023-07-08T05:30:41;102245.67;;;20.49;47.71
58739;BME280;44512;53.046;18.604;2023-07-08T05:41:09;102238.80;;;20.59;46.98
58739;BME280;44512;53.046;18.604;2023-07-08T05:51:37;102219.22;;;20.67;46.55
58739;BME280;44512;53.046;18.604;2023-07-08T06:02:06;102203.84;;;20.77;46.22
58739;BME280;44512;53.046;18.604;2023-07-08T06:12:34;102209.41;;;20.89;45.79
58739;BME280;44512;53.046;18.604;2023-07-08T06:23:02;102209.45;;;21.01;45.18
58739;BME280;44512;53.046;18.604;2023-07-08T06:33:31;102206.51;;;21.14;44.90
58739;BME280;44512;53.046;18.604;2023-07-08T06:43:59;102221.73;;;21.28;43.52
58739;BME280;44512;53.046;18.604;2023-07-08T06:54:27;102209.46;;;21.43;42.61
58739;BME280;44512;53.046;18.604;2023-07-08T07:04:56;102215.95;;;21.60;42.03
58739;BME280;44512;53.046;18.604;2023-07-08T07:15:24;102204.45;;;21.75;41.57
58739;BME280;44512;53.046;18.604;2023-07-08T07:25:52;102205.65;;;21.91;41.24
58739;BME280;44512;53.046;18.604;2023-07-08T07:36:21;102212.71;;;22.10;41.10
58739;BME280;44512;53.046;18.604;2023-07-08T07:46:49;102210.33;;;22.25;40.69
58739;BME280;44512;53.046;18.604;2023-07-08T07:57:17;102223.98;;;22.44;40.41
58739;BME280;44512;53.046;18.604;2023-07-08T08:07:46;102221.54;;;22.59;38.70
58739;BME280;44512;53.046;18.604;2023-07-08T08:18:14;102216.91;;;22.76;37.93
58739;BME280;44512;53.046;18.604;2023-07-08T08:28:43;102218.33;;;22.91;37.31
58739;BME280;44512;53.046;18.604;2023-07-08T08:39:11;102225.21;;;23.05;36.53
58739;BME280;44512;53.046;18.604;2023-07-08T08:49:44;102229.95;;;23.21;36.00
58739;BME280;44512;53.046;18.604;2023-07-08T09:00:10;102217.24;;;23.37;35.76
58739;BME280;44512;53.046;18.604;2023-07-08T09:10:45;102202.25;;;23.50;35.38
58739;BME280;44512;53.046;18.604;2023-07-08T09:31:38;102200.48;;;23.77;34.00
58739;BME280;44512;53.046;18.604;2023-07-08T09:42:06;102185.48;;;23.90;33.81
58739;BME280;44512;53.046;18.604;2023-07-08T09:52:30;102183.13;;;23.99;33.48
58739;BME280;44512;53.046;18.604;2023-07-08T10:02:58;102171.95;;;24.10;32.81
58739;BME280;44512;53.046;18.604;2023-07-08T10:24:19;102146.71;;;24.29;30.96
58739;BME280;44512;53.046;18.604;2023-07-08T10:45:02;102143.45;;;24.54;28.93
58739;BME280;44512;53.046;18.604;2023-07-08T11:06:41;102128.53;;;24.82;28.85
58739;BME280;44512;53.046;18.604;2023-07-08T11:16:26;102126.16;;;24.95;28.39
58739;BME280;44512;53.046;18.604;2023-07-08T11:26:53;102103.01;;;25.07;28.64
58739;BME280;44512;53.046;18.604;2023-07-08T11:37:13;102108.63;;;25.17;28.59
58739;BME280;44512;53.046;18.604;2023-07-08T11:47:45;102097.63;;;25.27;28.79
58739;BME280;44512;53.046;18.604;2023-07-08T12:08:37;102098.91;;;25.52;28.60
58739;BME280;44512;53.046;18.604;2023-07-08T12:19:06;102085.70;;;25.64;28.60
58739;BME280;44512;53.046;18.604;2023-07-08T12:29:34;102083.00;;;25.79;28.61
58739;BME280;44512;53.046;18.604;2023-07-08T12:40:08;102075.87;;;25.93;29.04
58739;BME280;44512;53.046;18.604;2023-07-08T12:50:31;102067.87;;;26.07;29.01
58739;BME280;44512;53.046;18.604;2023-07-08T13:01:01;102060.44;;;26.23;28.27
58739;BME280;44512;53.046;18.604;2023-07-08T13:11:27;102057.70;;;26.38;27.80
58739;BME280;44512;53.046;18.604;2023-07-08T13:21:56;102054.41;;;26.57;28.42
58739;BME280;44512;53.046;18.604;2023-07-08T13:32:30;102062.76;;;26.77;27.75
58739;BME280;44512;53.046;18.604;2023-07-08T13:42:52;102054.43;;;26.97;27.79
58739;BME280;44512;53.046;18.604;2023-07-08T13:53:24;102055.02;;;27.15;28.05
58739;BME280;44512;53.046;18.604;2023-07-08T14:03:50;102031.94;;;27.30;28.21
58739;BME280;44512;53.046;18.604;2023-07-08T14:14:18;102034.38;;;27.46;27.95
58739;BME280;44512;53.046;18.604;2023-07-08T14:24:46;102034.31;;;27.67;28.12
58739;BME280;44512;53.046;18.604;2023-07-08T14:35:25;102029.26;;;27.84;27.93
58739;BME280;44512;53.046;18.604;2023-07-08T14:50:19;102018.55;;;28.07;28.10
58739;BME280;44512;53.046;18.604;2023-07-08T15:00:21;102005.09;;;28.24;27.92
58739;BME280;44512;53.046;18.604;2023-07-08T15:10:26;102012.74;;;28.47;27.71
58739;BME280;44512;53.046;18.604;2023-07-08T15:20:28;102008.53;;;28.84;27.52
58739;BME280;44512;53.046;18.604;2023-07-08T15:30:31;102001.87;;;29.14;27.45
58739;BME280;44512;53.046;18.604;2023-07-08T15:40:34;102000.70;;;29.44;27.20
58739;BME280;44512;53.046;18.604;2023-07-08T15:50:35;101998.39;;;29.75;26.87
58739;BME280;44512;53.046;18.604;2023-07-08T16:00:39;101992.69;;;30.04;26.04
58739;BME280;44512;53.046;18.604;2023-07-08T16:10:42;102003.79;;;30.28;25.51
58739;BME280;44512;53.046;18.604;2023-07-08T16:20:44;101994.17;;;30.53;24.87
58739;BME280;44512;53.046;18.604;2023-07-08T16:30:47;102002.79;;;30.76;24.46
58739;BME280;44512;53.046;18.604;2023-07-08T16:40:50;102007.98;;;30.96;24.36
58739;BME280;44512;53.046;18.604;2023-07-08T16:50:52;102007.60;;;31.17;24.76
58739;BME280;44512;53.046;18.604;2023-07-08T17:00:53;102008.20;;;31.32;25.06
58739;BME280;44512;53.046;18.604;2023-07-08T17:10:56;102009.94;;;31.42;25.09
58739;BME280;44512;53.046;18.604;2023-07-08T17:21:01;102014.31;;;31.48;25.41
58739;BME280;44512;53.046;18.604;2023-07-08T17:31:04;102023.64;;;31.44;25.75
58739;BME280;44512;53.046;18.604;2023-07-08T17:41:10;102042.37;;;31.29;26.64
58739;BME280;44512;53.046;18.604;2023-07-08T17:51:17;102026.95;;;30.99;27.50
58739;BME280;44512;53.046;18.604;2023-07-08T18:01:19;102039.41;;;30.74;28.49
58739;BME280;44512;53.046;18.604;2023-07-08T18:11:23;102038.45;;;30.46;29.07
58739;BME280;44512;53.046;18.604;2023-07-08T18:21:29;102047.52;;;30.19;29.61
58739;BME280;44512;53.046;18.604;2023-07-08T18:31:34;102057.62;;;29.91;30.26
58739;BME280;44512;53.046;18.604;2023-07-08T18:41:43;102054.01;;;29.67;30.71
58739;BME280;44512;53.046;18.604;2023-07-08T18:51:56;102069.90;;;29.42;30.95
58739;BME280;44512;53.046;18.604;2023-07-08T19:02:32;102079.66;;;29.16;31.13
58739;BME280;44512;53.046;18.604;2023-07-08T19:12:52;102104.91;;;28.95;31.46
58739;BME280;44512;53.046;18.604;2023-07-08T19:23:25;102113.13;;;28.71;32.01
58739;BME280;44512;53.046;18.604;2023-07-08T19:33:51;102121.92;;;28.49;32.54
58739;BME280;44512;53.046;18.604;2023-07-08T19:44:23;102118.13;;;28.25;32.78
58739;BME280;44512;53.046;18.604;2023-07-08T19:54:47;102123.79;;;27.99;33.04
58739;BME280;44512;53.046;18.604;2023-07-08T20:05:14;102129.44;;;27.74;33.53
58739;BME280;44512;53.046;18.604;2023-07-08T20:15:43;102136.42;;;27.51;33.87
58739;BME280;44512;53.046;18.604;2023-07-08T20:36:39;102156.19;;;27.09;34.51
58739;BME280;44512;53.046;18.604;2023-07-08T20:47:15;102158.91;;;26.88;34.62
58739;BME280;44512;53.046;18.604;2023-07-08T20:57:36;102166.09;;;26.69;34.63
58739;BME280;44512;53.046;18.604;2023-07-08T21:18:34;102164.23;;;26.22;35.24
58739;BME280;44512;53.046;18.604;2023-07-08T21:29:02;102174.09;;;25.97;35.56
58739;BME280;44512;53.046;18.604;2023-07-08T21:39:33;102165.37;;;25.79;35.84
58739;BME280;44512;53.046;18.604;2023-07-08T21:49:57;102177.40;;;25.57;36.23
58739;BME280;44512;53.046;18.604;2023-07-08T22:00:26;102186.42;;;25.42;36.53
58739;BME280;44512;53.046;18.604;2023-07-08T22:10:59;102178.48;;;25.19;36.89
58739;BME280;44512;53.046;18.604;2023-07-08T22:21:29;102177.11;;;24.94;37.26
58739;BME280;44512;53.046;18.604;2023-07-08T22:31:51;102176.62;;;24.76;37.47
58739;BME280;44512;53.046;18.604;2023-07-08T22:42:19;102177.26;;;24.56;37.64
58739;BME280;44512;53.046;18.604;2023-07-08T22:52:49;102178.05;;;24.34;37.95
58739;BME280;44512;53.046;18.604;2023-07-08T23:03:16;102188.35;;;24.17;38.14
58739;BME280;44512;53.046;18.604;2023-07-08T23:13:45;102176.17;;;23.96;38.55
58739;BME280;44512;53.046;18.604;2023-07-08T23:24:12;102170.61;;;23.74;38.94
58739;BME280;44512;53.046;18.604;2023-07-08T23:34:40;102175.53;;;23.55;39.33
58739;BME280;44512;53.046;18.604;2023-07-08T23:45:12;102178.21;;;23.33;39.80
58739;BME280;44512;53.046;18.604;2023-07-08T23:55:37;102186.15;;;23.13;40.13
